Time;durP1;ratioP1;P1;durP2;ratioP2;P2;SDS_P1;SDS_P2;PMS_P1;PMS_P2;Temp;Humidity;BMP_temperature;BMP_pressure;BME280_temperature;BME280_humidity;BME280_pressure;Samples;Min_cycle;Max_cycle;Signal;HPM_P1;HPM_P2
2022/04/13 00:00:12;;;;;;;683.53;650.47;;;;;;;;;;4968082;28;92073;-83
2022/04/13 00:02:59;;;;;;;456.70;421.73;;;;;;;;;;4969248;28;92183;-84
2022/04/13 00:05:45;;;;;;;593.33;563.00;;;;;;;;;;4981787;28;92132;-84
2022/04/13 00:08:32;;;;;;;447.03;422.00;;;;;;;;;;4961482;28;91475;-84
2022/04/13 00:11:19;;;;;;;759.93;709.23;;;;;;;;;;4951178;28;90674;-84
2022/04/13 00:14:06;;;;;;;620.80;587.57;;;;;;;;;;4982305;28;91680;-84
2022/04/13 00:17:02;;;;;;;763.60;723.07;;;;;;;;;;4970228;28;91560;-83
2022/04/13 00:19:49;;;;;;;912.77;832.07;;;;;;;;;;4968240;28;94653;-83
2022/04/13 00:22:35;;;;;;;750.87;711.10;;;;;;;;;;4963549;28;92184;-84
2022/04/13 00:25:22;;;;;;;670.90;628.90;;;;;;;;;;4962800;28;92255;-84
2022/04/13 00:28:14;;;;;;;565.90;535.20;;;;;;;;;;4948837;28;91906;-84
2022/04/13 00:31:00;;;;;;;689.03;644.43;;;;;;;;;;4974837;28;92139;-84
2022/04/13 00:33:48;;;;;;;608.43;578.33;;;;;;;;;;4968028;28;92055;-84
2022/04/13 00:36:34;;;;;;;455.57;430.00;;;;;;;;;;4960853;28;92111;-84
2022/04/13 00:39:21;;;;;;;204.47;195.67;;;;;;;;;;4968971;28;91519;-84
2022/04/13 00:42:08;;;;;;;490.17;467.00;;;;;;;;;;4968854;28;92006;-84
2022/04/13 00:45:00;;;;;;;403.47;381.30;;;;;;;;;;4966016;28;92045;-84
2022/04/13 00:47:47;;;;;;;625.43;595.77;;;;;;;;;;4948563;28;93873;-84
2022/04/13 00:50:34;;;;;;;599.83;568.17;;;;;;;;;;4950042;28;94014;-85
2022/04/13 00:53:23;;;;;;;480.73;458.87;;;;;;;;;;4949957;28;91428;-84
2022/04/13 00:56:16;;;;;;;563.53;535.83;;;;;;;;;;4963078;28;92191;-84
2022/04/13 00:59:04;;;;;;;411.80;386.67;;;;;;;;;;4965577;28;91597;-84
2022/04/13 01:01:58;;;;;;;544.37;519.47;;;;;;;;;;4952095;28;91686;-84
2022/04/13 01:04:46;;;;;;;615.57;585.83;;;;;;;;;;4962269;28;92178;-83
2022/04/13 01:07:37;;;;;;;510.43;488.57;;;;;;;;;;4956326;28;91428;-85
2022/04/13 01:10:25;;;;;;;472.53;452.53;;;;;;;;;;4980780;28;91566;-84
2022/04/13 01:13:13;;;;;;;179.37;171.77;;;;;;;;;;4967508;28;92213;-84
2022/04/13 01:15:59;;;;;;;523.70;497.93;;;;;;;;;;4979939;28;94446;-84
2022/04/13 01:18:49;;;;;;;553.07;516.73;;;;;;;;;;4968860;28;92125;-84
2022/04/13 01:21:42;;;;;;;403.33;381.13;;;;;;;;;;4948706;28;92455;-84
2022/04/13 01:24:31;;;;;;;583.37;542.77;;;;;;;;;;4967187;28;92255;-84
2022/04/13 01:29:54;;;;;;;895.97;842.77;;;;;;;;;;5464069;22;93091;-84
2022/04/13 01:32:41;;;;;;;697.83;664.53;;;;;;;;;;4966625;28;92302;-84
2022/04/13 01:35:32;;;;;;;649.80;617.60;;;;;;;;;;4955089;28;91517;-84
2022/04/13 01:38:18;;;;;;;693.80;661.87;;;;;;;;;;4946660;28;92030;-84
2022/04/13 01:41:09;;;;;;;973.77;903.10;;;;;;;;;;4950373;28;92359;-83
2022/04/13 01:43:56;;;;;;;715.63;673.23;;;;;;;;;;4965943;28;94596;-85
2022/04/13 01:46:49;;;;;;;742.80;699.23;;;;;;;;;;4966583;28;95046;-85
2022/04/13 01:49:36;;;;;;;553.10;528.20;;;;;;;;;;4956552;28;92130;-83
2022/04/13 01:52:26;;;;;;;722.87;679.73;;;;;;;;;;4949219;28;91473;-83
2022/04/13 01:55:13;;;;;;;789.77;741.27;;;;;;;;;;4953856;28;92346;-83
2022/04/13 01:58:00;;;;;;;810.37;764.93;;;;;;;;;;4969581;28;91986;-83
2022/04/13 02:00:51;;;;;;;867.33;789.93;;;;;;;;;;4979503;28;92090;-84
2022/04/13 02:03:37;;;;;;;878.07;823.17;;;;;;;;;;4968498;28;90649;-83
2022/04/13 02:06:30;;;;;;;727.87;687.03;;;;;;;;;;4967669;28;91978;-83
2022/04/13 02:09:17;;;;;;;845.07;786.63;;;;;;;;;;4963092;28;92322;-84
2022/04/13 02:12:06;;;;;;;818.97;764.50;;;;;;;;;;4969582;28;94485;-83
2022/04/13 02:14:53;;;;;;;655.67;614.57;;;;;;;;;;4966394;28;92156;-84
2022/04/13 02:17:40;;;;;;;751.50;710.40;;;;;;;;;;4966473;28;91783;-83
2022/04/13 02:20:26;;;;;;;954.77;892.43;;;;;;;;;;4956386;28;92012;-84
2022/04/13 02:23:13;;;;;;;682.23;641.97;;;;;;;;;;4962052;28;92029;-83
2022/04/13 02:26:01;;;;;;;1000.57;920.23;;;;;;;;;;4962681;28;92089;-84
2022/04/13 02:28:49;;;;;;;778.10;720.70;;;;;;;;;;4967696;28;91846;-84
2022/04/13 02:31:36;;;;;;;848.33;785.60;;;;;;;;;;4980484;28;91687;-84
2022/04/13 02:34:28;;;;;;;710.27;663.40;;;;;;;;;;4967635;28;92207;-84
2022/04/13 02:37:15;;;;;;;987.77;907.40;;;;;;;;;;4967645;28;91500;-84
2022/04/13 02:40:06;;;;;;;936.00;871.83;;;;;;;;;;4959082;28;94453;-85
2022/04/13 02:42:53;;;;;;;743.03;695.47;;;;;;;;;;4948092;28;93854;-85
2022/04/13 02:45:45;;;;;;;786.67;731.37;;;;;;;;;;4947564;28;91370;-84
2022/04/13 02:48:31;;;;;;;603.93;565.47;;;;;;;;;;4951776;28;92125;-84
2022/04/13 02:51:20;;;;;;;866.53;802.27;;;;;;;;;;4980391;28;92083;-84
2022/04/13 02:54:06;;;;;;;994.67;911.90;;;;;;;;;;4966003;28;92061;-83
2022/04/13 02:56:53;;;;;;;723.87;676.30;;;;;;;;;;4947429;28;91802;-83
2022/04/13 02:59:42;;;;;;;949.77;876.13;;;;;;;;;;4959473;28;91418;-83
2022/04/13 03:02:29;;;;;;;772.90;723.87;;;;;;;;;;4945231;28;92706;-82
2022/04/13 03:05:16;;;;;;;933.40;854.93;;;;;;;;;;4959641;28;92508;-82
2022/04/13 03:08:03;;;;;;;1035.27;949.90;;;;;;;;;;4978028;28;93692;-84
2022/04/13 03:10:50;;;;;;;800.73;743.07;;;;;;;;;;4966271;28;92147;-83
2022/04/13 03:13:38;;;;;;;940.33;871.77;;;;;;;;;;4967065;28;92204;-83
2022/04/13 03:16:25;;;;;;;896.60;827.97;;;;;;;;;;4970234;28;92425;-83
2022/04/13 03:19:11;;;;;;;885.03;822.53;;;;;;;;;;4965828;28;91420;-83
2022/04/13 03:21:58;;;;;;;858.20;795.77;;;;;;;;;;4967009;28;92041;-84
2022/04/13 03:24:48;;;;;;;754.60;700.37;;;;;;;;;;4980194;28;91564;-83
2022/04/13 03:27:34;;;;;;;934.33;845.13;;;;;;;;;;4966426;28;92681;-83
2022/04/13 03:30:22;;;;;;;918.83;840.03;;;;;;;;;;4980848;28;91433;-84
2022/04/13 03:33:09;;;;;;;842.27;780.03;;;;;;;;;;4971074;28;91372;-83
2022/04/13 03:35:57;;;;;;;984.00;901.33;;;;;;;;;;4975359;28;94054;-83
2022/04/13 03:38:43;;;;;;;1092.57;985.43;;;;;;;;;;4971127;28;93994;-84
2022/04/13 03:41:33;;;;;;;994.90;920.13;;;;;;;;;;5390849;23;93936;-84
2022/04/13 03:44:21;;;;;;;742.77;696.93;;;;;;;;;;4990060;28;91895;-84
2022/04/13 03:47:07;;;;;;;902.87;833.63;;;;;;;;;;5003040;28;92300;-83
2022/04/13 03:49:54;;;;;;;883.70;814.27;;;;;;;;;;4973820;28;92167;-83
2022/04/13 03:52:46;;;;;;;864.90;812.20;;;;;;;;;;4983451;28;92771;-84
2022/04/13 03:55:33;;;;;;;829.53;776.97;;;;;;;;;;4983613;28;91667;-83
2022/04/13 03:58:20;;;;;;;738.37;695.50;;;;;;;;;;4996042;28;91651;-83
2022/04/13 04:01:09;;;;;;;1041.30;930.80;;;;;;;;;;4988827;28;91660;-84
2022/04/13 04:03:56;;;;;;;1144.07;992.90;;;;;;;;;;4987849;28;93782;-83
2022/04/13 04:06:43;;;;;;;783.03;738.83;;;;;;;;;;4988833;28;91521;-83
2022/04/13 04:09:32;;;;;;;783.17;734.37;;;;;;;;;;4998613;28;92156;-83
2022/04/13 04:12:20;;;;;;;731.63;682.43;;;;;;;;;;4970155;28;91535;-83
2022/04/13 04:15:11;;;;;;;877.17;796.87;;;;;;;;;;4996273;23;93696;-83
2022/04/13 04:17:53;;;;;;;730.03;686.00;;;;;;;;;;5102267;22;93634;-83
2022/04/13 04:20:40;;;;;;;735.13;692.33;;;;;;;;;;4967025;28;91647;-83
2022/04/13 04:23:27;;;;;;;958.13;863.67;;;;;;;;;;4968057;28;91599;-83
2022/04/13 04:26:18;;;;;;;819.50;762.13;;;;;;;;;;4968850;28;92189;-83
2022/04/13 04:29:04;;;;;;;983.97;887.37;;;;;;;;;;4983261;28;92125;-83
2022/04/13 04:31:52;;;;;;;844.07;784.33;;;;;;;;;;4981695;28;94673;-84
2022/04/13 04:37:19;;;;;;;702.07;662.67;;;;;;;;;;5599932;23;94671;-82
2022/04/13 04:40:06;;;;;;;507.13;480.53;;;;;;;;;;4947839;28;92073;-83
2022/04/13 04:42:54;;;;;;;865.50;798.60;;;;;;;;;;4955257;28;92611;-83
2022/04/13 04:45:41;;;;;;;958.23;869.13;;;;;;;;;;4968902;28;92036;-83
2022/04/13 04:48:28;;;;;;;740.37;692.27;;;;;;;;;;4968903;28;92063;-83
2022/04/13 04:56:35;;;;;;;807.57;754.90;;;;;;;;;;5635158;22;94411;-84
2022/04/13 05:01:58;;;;;;;736.07;691.87;;;;;;;;;;5430767;23;92930;-84
2022/04/13 05:04:45;;;;;;;823.87;770.97;;;;;;;;;;4983318;28;91579;-83
2022/04/13 05:07:32;;;;;;;337.87;321.27;;;;;;;;;;4968685;28;92060;-84
2022/04/13 05:10:21;;;;;;;552.03;522.23;;;;;;;;;;4968625;28;91497;-84
2022/04/13 05:38:05;;;;;;;369.27;349.10;;;;;;;;;;4980969;28;92046;-84
2022/04/13 05:40:51;;;;;;;678.73;638.03;;;;;;;;;;4967066;28;91417;-84
2022/04/13 05:46:04;;;;;;;754.47;709.70;;;;;;;;;;5653276;22;93366;-84
2022/04/13 05:49:01;;;;;;;304.97;289.43;;;;;;;;;;6055227;22;94110;-83
2022/04/13 05:51:48;;;;;;;784.97;737.03;;;;;;;;;;4947790;28;93487;-84
2022/04/13 05:54:36;;;;;;;871.70;812.40;;;;;;;;;;4948243;28;93801;-84
2022/04/13 05:57:22;;;;;;;755.90;703.90;;;;;;;;;;4950020;28;91948;-83
2022/04/13 06:00:11;;;;;;;421.03;399.13;;;;;;;;;;4948836;28;92624;-83
2022/04/13 06:02:55;;;;;;;868.47;804.20;;;;;;;;;;5836283;22;94125;-84
2022/04/13 06:05:42;;;;;;;676.57;619.83;;;;;;;;;;4980303;28;91350;-85
2022/04/13 06:08:29;;;;;;;566.93;533.27;;;;;;;;;;4967591;28;92269;-85
2022/04/13 06:11:21;;;;;;;689.83;651.40;;;;;;;;;;4955740;28;91734;-84
2022/04/13 06:14:08;;;;;;;906.83;820.37;;;;;;;;;;4968843;28;91615;-84
2022/04/13 06:16:55;;;;;;;802.40;756.03;;;;;;;;;;4961287;28;92500;-84
2022/04/13 06:19:42;;;;;;;804.07;750.07;;;;;;;;;;4961583;28;92153;-85
2022/04/13 06:22:31;;;;;;;814.60;743.47;;;;;;;;;;4965100;28;94031;-84
2022/04/13 06:25:18;;;;;;;794.77;749.63;;;;;;;;;;4979930;28;94119;-84
2022/04/13 06:28:05;;;;;;;927.33;864.83;;;;;;;;;;4965295;28;91950;-84
2022/04/13 06:30:52;;;;;;;833.10;770.10;;;;;;;;;;4980286;28;91444;-84
2022/04/13 06:33:41;;;;;;;838.77;789.00;;;;;;;;;;4966222;28;92587;-84
2022/04/13 06:36:27;;;;;;;835.60;785.13;;;;;;;;;;4980474;28;92173;-85
2022/04/13 06:39:15;;;;;;;786.57;741.43;;;;;;;;;;4967137;28;91586;-85
2022/04/13 06:42:01;;;;;;;895.80;842.43;;;;;;;;;;4981855;28;91129;-85
2022/04/13 06:44:50;;;;;;;865.03;813.10;;;;;;;;;;4947036;28;91733;-85
2022/04/13 06:47:37;;;;;;;763.37;713.90;;;;;;;;;;4959012;28;91639;-84
2022/04/13 06:53:07;;;;;;;860.20;807.77;;;;;;;;;;5165428;23;92053;-85
2022/04/13 06:55:55;;;;;;;877.90;829.73;;;;;;;;;;4986752;28;91612;-85
2022/04/13 07:43:26;;;;;;;427.87;408.50;;;;;;;;;;5870677;22;96374;-86
2022/04/13 07:46:13;;;;;;;487.63;464.63;;;;;;;;;;5016288;23;93985;-85
2022/04/13 07:49:00;;;;;;;365.33;349.90;;;;;;;;;;4939899;28;92108;-86
2022/04/13 07:51:47;;;;;;;610.57;580.17;;;;;;;;;;4941908;28;91709;-87
2022/04/13 07:54:36;;;;;;;396.40;378.47;;;;;;;;;;4945715;28;91346;-86
2022/04/13 07:57:23;;;;;;;445.10;425.27;;;;;;;;;;4953616;28;92289;-86
2022/04/13 08:00:10;;;;;;;408.70;390.13;;;;;;;;;;4933634;28;92114;-86
2022/04/13 08:34:07;;;;;;;483.10;461.17;;;;;;;;;;5144217;23;92112;-85
2022/04/13 08:37:14;;;;;;;739.17;696.83;;;;;;;;;;4956949;28;94754;-86
2022/04/13 09:17:50;;;;;;;764.73;715.83;;;;;;;;;;3096567;23;94045;-92
2022/04/13 09:20:36;;;;;;;700.37;656.97;;;;;;;;;;4936803;28;92938;-89
2022/04/13 09:23:23;;;;;;;513.07;487.20;;;;;;;;;;4939099;28;91563;-87
2022/04/13 09:26:12;;;;;;;673.43;623.57;;;;;;;;;;4937545;28;92636;-88
2022/04/13 09:28:59;;;;;;;475.13;450.30;;;;;;;;;;4923150;28;92514;-87
2022/04/13 09:31:46;;;;;;;731.70;683.97;;;;;;;;;;4933840;28;94707;-89
2022/04/13 09:34:33;;;;;;;500.07;462.30;;;;;;;;;;4937274;28;94135;-87
2022/04/13 09:37:20;;;;;;;432.70;406.63;;;;;;;;;;4948494;28;93507;-89
2022/04/13 09:40:07;;;;;;;114.23;107.57;;;;;;;;;;4936971;28;92546;-89
2022/04/13 09:43:03;;;;;;;292.80;276.53;;;;;;;;;;4922379;28;92669;-93
2022/04/13 09:45:50;;;;;;;389.37;365.03;;;;;;;;;;4922185;28;92987;-89
2022/04/13 09:48:37;;;;;;;56.43;53.37;;;;;;;;;;4940063;28;92612;-88
2022/04/13 09:51:35;;;;;;;194.23;182.03;;;;;;;;;;4945605;28;92727;-88
2022/04/13 09:54:25;;;;;;;24.73;21.93;;;;;;;;;;4934265;28;92353;-88
2022/04/13 09:57:24;;;;;;;166.73;158.63;;;;;;;;;;4940856;28;92364;-94
2022/04/13 10:00:12;;;;;;;18.53;17.23;;;;;;;;;;4933069;28;96597;-91
2022/04/13 10:03:06;;;;;;;30.80;28.27;;;;;;;;;;4940674;28;95015;-86
2022/04/13 10:05:54;;;;;;;53.43;50.03;;;;;;;;;;4934551;28;92721;-88
2022/04/13 10:08:40;;;;;;;62.40;59.10;;;;;;;;;;4937608;28;92456;-87
2022/04/13 10:11:27;;;;;;;110.17;103.90;;;;;;;;;;4954677;28;92713;-88
2022/04/13 10:14:19;;;;;;;31.60;29.60;;;;;;;;;;4931166;28;92925;-86
2022/04/13 10:17:11;;;;;;;21.50;19.17;;;;;;;;;;4932924;28;92462;-87
2022/04/13 10:19:58;;;;;;;35.63;12.97;;;;;;;;;;4943457;28;91571;-90
2022/04/13 10:23:01;;;;;;;14.13;8.50;;;;;;;;;;4939841;28;92579;-88
2022/04/13 10:25:48;;;;;;;13.80;8.13;;;;;;;;;;4949815;28;92890;-89
2022/04/13 10:28:46;;;;;;;8.93;4.70;;;;;;;;;;4956454;28;94927;-87
2022/04/13 10:31:32;;;;;;;13.27;8.17;;;;;;;;;;4950621;28;93257;-88
2022/04/13 10:34:28;;;;;;;8.70;4.00;;;;;;;;;;4962068;28;93093;-91
2022/04/13 10:37:17;;;;;;;8.33;4.40;;;;;;;;;;4940087;28;93650;-86
2022/04/13 10:40:04;;;;;;;11.97;5.70;;;;;;;;;;4936343;28;92271;-88
2022/04/13 10:42:51;;;;;;;17.83;8.10;;;;;;;;;;4922857;28;92473;-86
2022/04/13 10:45:46;;;;;;;8.93;4.57;;;;;;;;;;4926238;28;93187;-88
2022/04/13 10:48:36;;;;;;;14.20;4.57;;;;;;;;;;4937137;28;92357;-88
2022/04/13 10:51:31;;;;;;;25.07;9.80;;;;;;;;;;4940301;28;92335;-87
2022/04/13 10:54:19;;;;;;;8.23;3.60;;;;;;;;;;4942554;28;92850;-87
2022/04/13 10:57:07;;;;;;;9.30;3.63;;;;;;;;;;4934328;28;95146;-89
2022/04/13 10:59:54;;;;;;;14.10;3.50;;;;;;;;;;4939586;28;94840;-88
2022/04/13 11:02:48;;;;;;;7.33;3.40;;;;;;;;;;4947405;28;92585;-89
2022/04/13 11:05:35;;;;;;;5.57;3.70;;;;;;;;;;4956174;28;92369;-88
2022/04/13 11:08:25;;;;;;;10.70;4.00;;;;;;;;;;4958432;28;92673;-89
2022/04/13 11:11:17;;;;;;;9.20;3.63;;;;;;;;;;4939564;28;92758;-86
2022/04/13 11:14:18;;;;;;;7.00;3.90;;;;;;;;;;4938508;28;92322;-91
2022/04/13 11:17:07;;;;;;;5.53;3.60;;;;;;;;;;4935870;28;92234;-87
2022/04/13 11:20:14;;;;;;;117.03;14.57;;;;;;;;;;4934695;28;92771;-89
2022/04/13 11:23:15;;;;;;;25.57;7.00;;;;;;;;;;4933042;28;92564;-90
2022/04/13 11:26:02;;;;;;;10.93;5.10;;;;;;;;;;4933269;28;94966;-88
2022/04/13 11:29:09;;;;;;;13.60;4.73;;;;;;;;;;4947968;28;92509;-88
2022/04/13 11:31:58;;;;;;;9.83;5.50;;;;;;;;;;4941520;28;92654;-88
2022/04/13 11:34:57;;;;;;;6.57;4.70;;;;;;;;;;4926341;28;92429;-86
